createdAt,value
2023-11-24T00:00:51.116Z,81.41
2023-11-24T00:03:41.839Z,81.70
2023-11-24T00:06:13.966Z,81.70
2023-11-24T00:08:45.521Z,82.24
2023-11-24T00:11:17.082Z,82.49
2023-11-24T00:13:48.646Z,82.52
2023-11-24T00:16:22.192Z,82.31
2023-11-24T00:18:53.955Z,82.26
2023-11-24T00:21:26.119Z,82.55
2023-11-24T00:23:57.781Z,82.78
2023-11-24T00:26:29.285Z,83.02
2023-11-24T00:29:01.974Z,82.92
2023-11-24T00:31:33.758Z,83.15
2023-11-24T00:34:05.562Z,82.94
2023-11-24T00:36:37.949Z,82.82
2023-11-24T00:39:09.571Z,80.99
2023-11-24T00:41:41.723Z,80.20
2023-11-24T00:44:13.287Z,80.19
2023-11-24T00:46:44.864Z,80.03
2023-11-24T00:49:16.435Z,79.18
2023-11-24T00:51:48.199Z,77.72
2023-11-24T00:54:19.775Z,77.28
2023-11-24T00:56:51.291Z,76.93
2023-11-24T00:59:23.252Z,77.86
2023-11-24T01:01:54.735Z,77.93
2023-11-24T01:04:26.681Z,77.60
2023-11-24T01:06:58.469Z,78.20
2023-11-24T01:09:30.476Z,78.32
2023-11-24T01:12:02.175Z,78.20
2023-11-24T01:14:33.671Z,78.46
2023-11-24T01:17:05.831Z,78.45
2023-11-24T01:19:38.479Z,78.55
2023-11-24T01:22:10.565Z,77.69
2023-11-24T01:24:42.334Z,76.99
2023-11-24T01:27:13.943Z,77.24
2023-11-24T01:29:45.434Z,77.50
2023-11-24T01:32:16.855Z,77.23
2023-11-24T01:34:48.582Z,77.76
2023-11-24T01:37:20.166Z,77.53
2023-11-24T01:39:52.042Z,76.64
2023-11-24T01:42:23.826Z,77.34
2023-11-24T01:44:55.664Z,77.21
2023-11-24T01:47:27.155Z,77.10
2023-11-24T01:49:58.865Z,76.92
2023-11-24T01:52:31.223Z,76.99
2023-11-24T01:55:05.624Z,77.05
2023-11-24T01:57:41.162Z,76.75
2023-11-24T02:00:15.283Z,77.02
2023-11-24T02:02:46.901Z,76.73
2023-11-24T02:05:19.341Z,76.57
2023-11-24T02:07:51.701Z,76.86
2023-11-24T02:10:24.134Z,77.07
2023-11-24T02:12:55.697Z,77.33
2023-11-24T02:15:27.262Z,77.33
2023-11-24T02:17:58.829Z,77.36
2023-11-24T02:20:34.556Z,77.53
2023-11-24T02:23:06.043Z,77.41
2023-11-24T02:25:37.602Z,77.71
2023-11-24T02:28:09.364Z,77.85
2023-11-24T02:30:41.192Z,78.00
2023-11-24T02:33:12.886Z,77.70
2023-11-24T02:35:45.010Z,77.18
2023-11-24T02:38:16.543Z,77.54
2023-11-24T02:40:48.937Z,77.22
2023-11-24T02:43:21.207Z,77.22
2023-11-24T02:45:52.748Z,77.29
2023-11-24T02:48:24.474Z,77.15
2023-11-24T02:50:56.049Z,77.08
2023-11-24T02:53:27.495Z,77.02
2023-11-24T02:55:59.175Z,76.97
2023-11-24T02:58:31.132Z,76.84
2023-11-24T03:01:02.775Z,77.11
2023-11-24T03:03:34.317Z,77.42
2023-11-24T03:06:06.948Z,77.69
2023-11-24T03:08:39.232Z,78.11
2023-11-24T03:11:11.200Z,78.16
2023-11-24T03:13:42.614Z,78.21
2023-11-24T03:16:14.103Z,78.15
2023-11-24T03:18:45.885Z,78.26
2023-11-24T03:21:17.414Z,78.12
2023-11-24T03:23:49.365Z,77.71
2023-11-24T03:26:20.825Z,77.87
2023-11-24T03:28:52.325Z,77.41
2023-11-24T03:31:23.832Z,77.35
2023-11-24T03:33:55.620Z,77.43
2023-11-24T03:36:27.245Z,77.70
2023-11-24T03:38:58.734Z,77.54
2023-11-24T03:41:30.231Z,77.65
2023-11-24T03:44:01.726Z,77.42
2023-11-24T03:46:33.195Z,77.20
2023-11-24T03:49:05.530Z,77.01
2023-11-24T03:51:37.065Z,76.75
2023-11-24T03:54:08.780Z,76.98
2023-11-24T03:56:40.308Z,76.71
2023-11-24T03:59:11.773Z,76.41
2023-11-24T04:01:43.408Z,76.00
2023-11-24T04:04:15.072Z,75.73
2023-11-24T04:06:46.704Z,76.11
2023-11-24T04:09:18.686Z,75.99
2023-11-24T04:11:50.244Z,75.75
2023-11-24T04:14:21.632Z,75.46
2023-11-24T04:16:53.166Z,75.23
2023-11-24T04:19:24.748Z,75.08
2023-11-24T04:21:56.438Z,75.23
2023-11-24T04:24:28.177Z,75.24
2023-11-24T04:26:59.996Z,75.50
2023-11-24T04:29:31.743Z,75.64
2023-11-24T04:32:03.292Z,75.54
2023-11-24T04:34:34.792Z,75.58
2023-11-24T04:37:07.007Z,75.15
2023-11-24T04:39:38.658Z,75.06
2023-11-24T04:42:10.376Z,74.88
2023-11-24T04:44:42.372Z,74.88
2023-11-24T04:47:13.868Z,74.98
2023-11-24T04:49:45.397Z,74.97
2023-11-24T04:52:16.975Z,74.75
2023-11-24T04:54:48.474Z,74.99
2023-11-24T04:57:20.048Z,74.83
2023-11-24T04:59:51.529Z,74.29
2023-11-24T05:02:23.112Z,74.48
2023-11-24T05:04:56.093Z,74.66
2023-11-24T05:07:27.745Z,75.01
2023-11-24T05:09:59.233Z,74.91
2023-11-24T05:12:30.824Z,74.83
2023-11-24T05:15:02.310Z,75.08
2023-11-24T05:17:33.860Z,75.32
2023-11-24T05:20:07.014Z,75.49
2023-11-24T05:22:38.610Z,75.65
2023-11-24T05:25:11.655Z,75.72
2023-11-24T05:27:43.294Z,76.04
2023-11-24T05:30:16.952Z,76.16
2023-11-24T05:32:49.047Z,76.15
2023-11-24T05:35:20.769Z,76.11
2023-11-24T05:37:52.192Z,76.20
2023-11-24T05:40:24.665Z,76.25
2023-11-24T05:42:56.793Z,76.39
2023-11-24T05:45:30.929Z,76.52
2023-11-24T05:48:03.041Z,76.67
2023-11-24T05:50:35.122Z,76.59
2023-11-24T05:53:06.544Z,76.73
2023-11-24T05:55:38.044Z,76.66
2023-11-24T05:58:09.724Z,76.84
2023-11-24T06:00:41.977Z,77.07
2023-11-24T06:03:13.540Z,77.17
2023-11-24T06:05:45.218Z,77.29
2023-11-24T06:08:17.028Z,77.14
2023-11-24T06:10:49.141Z,76.94
2023-11-24T06:13:20.812Z,76.92
2023-11-24T06:15:52.422Z,76.62
2023-11-24T06:18:24.100Z,75.87
2023-11-24T06:20:55.560Z,75.84
2023-11-24T06:23:27.040Z,75.76
2023-11-24T06:25:58.586Z,75.89
2023-11-24T06:28:30.292Z,75.63
2023-11-24T06:31:02.013Z,75.71
2023-11-24T06:33:33.851Z,75.65
2023-11-24T06:36:05.861Z,75.72
2023-11-24T06:38:37.390Z,75.25
2023-11-24T06:41:10.238Z,75.19
2023-11-24T06:43:41.696Z,75.05
2023-11-24T06:46:13.978Z,75.48
2023-11-24T06:48:45.711Z,75.53
2023-11-24T06:51:17.181Z,75.74
2023-11-24T06:53:48.718Z,75.79
2023-11-24T06:56:20.583Z,75.95
2023-11-24T06:58:55.600Z,75.55
2023-11-24T07:01:34.740Z,75.29
2023-11-24T07:04:07.397Z,75.18
2023-11-24T07:06:38.979Z,75.19
2023-11-24T07:09:13.134Z,75.11
2023-11-24T07:12:34.795Z,75.05
2023-11-24T07:15:07.721Z,75.14
2023-11-24T07:17:39.352Z,74.83
2023-11-24T07:20:13.249Z,74.59
2023-11-24T07:22:45.331Z,74.52
2023-11-24T07:25:17.601Z,74.50
2023-11-24T07:27:51.796Z,74.28
2023-11-24T07:30:24.061Z,74.03
2023-11-24T07:32:55.789Z,73.66
2023-11-24T07:35:27.369Z,73.71
2023-11-24T07:37:59.016Z,73.68
2023-11-24T07:40:31.568Z,73.55
2023-11-24T07:43:03.026Z,73.52
2023-11-24T07:45:34.484Z,73.17
2023-11-24T07:48:06.774Z,73.36
2023-11-24T07:50:39.631Z,73.54
2023-11-24T07:53:14.856Z,73.40
2023-11-24T07:55:47.003Z,73.59
2023-11-24T07:58:20.544Z,73.39
2023-11-24T08:00:52.097Z,73.53
2023-11-24T08:03:24.008Z,73.47
2023-11-24T08:05:55.555Z,73.38
2023-11-24T08:08:27.089Z,72.80
2023-11-24T08:10:58.507Z,73.00
2023-11-24T08:13:30.309Z,73.00
2023-11-24T08:16:03.421Z,72.45
2023-11-24T08:18:36.945Z,72.57
2023-11-24T08:21:10.263Z,72.19
2023-11-24T08:23:42.725Z,71.95
2023-11-24T08:26:18.597Z,71.66
2023-11-24T08:28:50.995Z,71.58
2023-11-24T08:31:23.428Z,71.65
2023-11-24T08:33:55.152Z,70.82
2023-11-24T08:36:27.864Z,70.09
2023-11-24T08:38:59.317Z,70.01
2023-11-24T08:41:38.156Z,70.15
2023-11-24T08:44:13.333Z,70.02
2023-11-24T08:46:46.000Z,70.15
2023-11-24T08:49:17.596Z,70.65
2023-11-24T08:51:49.177Z,71.07
2023-11-24T08:54:22.048Z,71.51
2023-11-24T08:56:53.649Z,71.42
2023-11-24T08:59:25.304Z,71.96
2023-11-24T09:01:57.248Z,72.27
2023-11-24T09:04:31.624Z,72.93
2023-11-24T09:07:04.611Z,73.10
2023-11-24T09:09:36.214Z,73.22
2023-11-24T09:12:08.814Z,73.15
2023-11-24T09:14:41.852Z,73.39
2023-11-24T09:17:14.307Z,73.40
2023-11-24T09:19:45.873Z,73.43
2023-11-24T09:22:17.371Z,73.81
2023-11-24T09:24:49.845Z,74.11
2023-11-24T09:27:22.790Z,74.19
2023-11-24T09:29:54.558Z,73.71
2023-11-24T09:32:26.926Z,73.87
2023-11-24T09:34:58.570Z,74.57
2023-11-24T09:37:30.197Z,74.21
2023-11-24T09:40:01.656Z,74.38
2023-11-24T09:42:45.185Z,74.63
2023-11-24T09:45:17.950Z,74.54
2023-11-24T09:47:51.072Z,74.25
2023-11-24T09:50:26.468Z,74.39
2023-11-24T09:53:00.157Z,74.42
2023-11-24T09:55:31.915Z,74.13
2023-11-24T09:58:04.046Z,74.01
2023-11-24T10:00:35.744Z,74.60
2023-11-24T10:03:09.123Z,74.57
2023-11-24T10:05:40.700Z,74.11
2023-11-24T10:08:13.738Z,73.89
2023-11-24T10:10:45.237Z,74.36
2023-11-24T10:13:17.054Z,74.08
2023-11-24T10:15:54.744Z,74.19
2023-11-24T10:18:29.189Z,74.71
2023-11-24T10:21:01.475Z,74.80
2023-11-24T10:23:33.358Z,74.75
2023-11-24T10:26:15.325Z,74.15
2023-11-24T10:28:47.475Z,74.49
2023-11-24T10:31:20.970Z,74.79
2023-11-24T10:33:53.136Z,75.06
2023-11-24T10:36:26.849Z,75.00
2023-11-24T10:39:07.596Z,74.68
2023-11-24T10:41:44.649Z,75.12
2023-11-24T10:44:19.564Z,74.88
2023-11-24T10:46:53.060Z,75.18
2023-11-24T10:49:32.287Z,74.69
2023-11-24T10:52:11.679Z,73.82
2023-11-24T10:54:51.601Z,72.75
2023-11-24T10:57:26.921Z,72.65
2023-11-24T11:00:00.294Z,72.73
2023-11-24T11:02:32.528Z,72.72
2023-11-24T11:05:18.382Z,73.18
2023-11-24T11:08:04.765Z,73.30
2023-11-24T11:10:47.073Z,73.13
2023-11-24T11:13:20.992Z,72.69
2023-11-24T11:15:55.800Z,72.96
2023-11-24T11:18:29.070Z,73.38
2023-11-24T11:21:11.494Z,73.74
2023-11-24T11:23:43.586Z,74.14
2023-11-24T11:26:49.889Z,74.47
2023-11-24T11:29:24.750Z,74.77
2023-11-24T11:31:57.948Z,75.15
2023-11-24T11:34:33.410Z,75.10
2023-11-24T11:37:08.452Z,75.45
2023-11-24T11:39:55.244Z,75.32
2023-11-24T11:42:33.831Z,75.09
2023-11-24T11:45:17.231Z,74.56
2023-11-24T11:47:55.182Z,74.40
2023-11-24T11:50:26.862Z,74.37
2023-11-24T11:53:02.186Z,74.48
2023-11-24T11:55:34.595Z,74.57
2023-11-24T11:58:07.574Z,74.56
2023-11-24T12:00:41.575Z,74.36
2023-11-24T12:03:14.682Z,74.62
2023-11-24T12:05:48.403Z,74.33
2023-11-24T12:08:20.889Z,74.38
2023-11-24T12:10:52.697Z,74.46
2023-11-24T12:13:25.816Z,74.56
2023-11-24T12:16:00.937Z,74.85
2023-11-24T12:18:32.707Z,74.48
2023-11-24T12:21:04.403Z,74.65
2023-11-24T12:23:36.804Z,74.08
2023-11-24T12:26:08.748Z,73.71
2023-11-24T12:28:44.530Z,73.73
2023-11-24T12:31:16.469Z,73.90
2023-11-24T12:33:53.385Z,74.18
2023-11-24T12:36:25.663Z,74.44
2023-11-24T12:38:57.181Z,73.96
2023-11-24T12:41:28.791Z,74.22
2023-11-24T12:44:00.837Z,74.18
2023-11-24T12:46:34.451Z,74.13
2023-11-24T12:49:06.983Z,74.38
2023-11-24T12:51:42.263Z,75.19
2023-11-24T12:54:14.315Z,74.65
2023-11-24T12:56:45.800Z,74.44
2023-11-24T12:59:19.222Z,74.45
2023-11-24T13:01:51.996Z,74.49
2023-11-24T13:04:24.977Z,74.36
2023-11-24T13:06:57.003Z,74.39
2023-11-24T13:09:30.069Z,74.23
2023-11-24T13:12:09.643Z,74.16
2023-11-24T13:14:47.368Z,73.49
2023-11-24T13:17:22.014Z,73.53
2023-11-24T13:19:53.953Z,73.68
2023-11-24T13:22:25.629Z,73.74
2023-11-24T13:24:57.152Z,74.12
2023-11-24T13:27:30.257Z,74.47
2023-11-24T13:30:02.082Z,74.10
2023-11-24T13:32:34.534Z,73.95
2023-11-24T13:35:07.958Z,73.93
2023-11-24T13:37:39.867Z,74.07
2023-11-24T13:40:13.808Z,73.59
2023-11-24T13:42:46.249Z,73.64
2023-11-24T13:45:18.508Z,73.73
2023-11-24T13:47:51.057Z,73.70
2023-11-24T13:50:23.202Z,73.34
2023-11-24T13:52:58.170Z,73.09
2023-11-24T13:55:35.342Z,73.22
2023-11-24T13:58:07.615Z,73.27
2023-11-24T14:00:39.372Z,72.90
2023-11-24T14:03:11.242Z,72.83
2023-11-24T14:05:44.306Z,72.60
2023-11-24T14:08:16.889Z,72.56
2023-11-24T14:10:49.474Z,72.49
2023-11-24T14:13:21.283Z,72.47
2023-11-24T14:15:53.088Z,72.61
2023-11-24T14:18:24.751Z,72.90
2023-11-24T14:20:57.928Z,72.63
2023-11-24T14:23:30.364Z,72.43
2023-11-24T14:26:01.811Z,72.35
2023-11-24T14:28:33.520Z,72.19
2023-11-24T14:31:06.498Z,72.26
2023-11-24T14:33:41.617Z,72.08
2023-11-24T14:36:15.418Z,72.47
2023-11-24T14:38:49.579Z,72.57
2023-11-24T14:41:21.117Z,72.82
2023-11-24T14:43:55.068Z,73.26
2023-11-24T14:46:30.069Z,72.85
2023-11-24T14:49:04.706Z,72.96
2023-11-24T14:51:39.618Z,72.87
2023-11-24T14:54:11.458Z,72.95
2023-11-24T14:56:46.800Z,73.17
2023-11-24T14:59:20.652Z,73.21
2023-11-24T15:01:59.336Z,73.39
2023-11-24T15:04:32.752Z,73.38
2023-11-24T15:07:06.307Z,73.43
2023-11-24T15:09:43.121Z,73.45
2023-11-24T15:12:14.851Z,73.76
2023-11-24T15:14:48.287Z,74.32
2023-11-24T15:17:19.776Z,74.81
2023-11-24T15:19:55.187Z,75.02
2023-11-24T15:22:28.284Z,75.24
2023-11-24T15:25:00.540Z,75.65
2023-11-24T15:27:32.355Z,75.88
2023-11-24T15:30:04.003Z,75.89
2023-11-24T15:32:35.815Z,76.13
2023-11-24T15:35:08.170Z,76.30
2023-11-24T15:37:39.565Z,76.10
2023-11-24T15:40:20.741Z,75.87
2023-11-24T15:42:56.351Z,75.76
2023-11-24T15:45:29.095Z,76.01
2023-11-24T15:48:07.740Z,75.96
2023-11-24T15:50:40.848Z,76.08
2023-11-24T15:53:14.630Z,75.98
2023-11-24T15:55:47.557Z,75.80
2023-11-24T15:58:24.682Z,75.79
2023-11-24T16:00:57.441Z,75.94
2023-11-24T16:03:30.249Z,75.65
2023-11-24T16:06:06.232Z,75.36
2023-11-24T16:08:46.292Z,75.45
2023-11-24T16:11:22.400Z,75.39
2023-11-24T16:13:54.209Z,74.85
2023-11-24T16:16:28.020Z,74.22
2023-11-24T16:18:59.613Z,74.36
2023-11-24T16:21:31.783Z,74.17
2023-11-24T16:24:03.997Z,74.03
2023-11-24T16:26:35.463Z,73.67
2023-11-24T16:29:07.281Z,73.80
2023-11-24T16:31:41.327Z,73.92
2023-11-24T16:34:13.109Z,73.92
2023-11-24T16:36:46.057Z,73.74
2023-11-24T16:39:20.550Z,73.77
2023-11-24T16:41:52.885Z,73.42
2023-11-24T16:44:24.858Z,73.29
2023-11-24T16:47:01.060Z,73.34
2023-11-24T16:49:32.887Z,73.39
2023-11-24T16:52:04.921Z,73.38
2023-11-24T16:54:37.446Z,73.57
2023-11-24T16:57:10.447Z,73.80
2023-11-24T16:59:43.287Z,73.95
2023-11-24T17:02:15.515Z,73.63
2023-11-24T17:04:48.620Z,73.37
2023-11-24T17:07:20.496Z,73.01
2023-11-24T17:09:53.307Z,73.19
2023-11-24T17:12:26.004Z,73.10
2023-11-24T17:14:58.100Z,73.10
2023-11-24T17:17:29.848Z,73.01
2023-11-24T17:20:01.577Z,73.01
2023-11-24T17:22:33.593Z,73.14
2023-11-24T17:25:05.559Z,73.04
2023-11-24T17:27:37.607Z,73.17
2023-11-24T17:30:14.107Z,73.19
2023-11-24T17:32:46.289Z,73.19
2023-11-24T17:35:19.274Z,72.92
2023-11-24T17:37:51.119Z,73.01
2023-11-24T17:40:23.552Z,72.69
2023-11-24T17:42:55.293Z,72.79
2023-11-24T17:45:27.294Z,72.62
2023-11-24T17:47:59.498Z,72.42
2023-11-24T17:50:31.127Z,72.52
2023-11-24T17:53:03.099Z,72.70
2023-11-24T17:55:35.670Z,72.72
2023-11-24T17:58:07.504Z,72.82
2023-11-24T18:00:41.114Z,72.90
2023-11-24T18:03:13.016Z,73.06
2023-11-24T18:05:44.824Z,72.80
2023-11-24T18:08:21.972Z,72.94
2023-11-24T18:10:53.793Z,73.09
2023-11-24T18:13:25.448Z,72.93
2023-11-24T18:15:57.304Z,73.13
2023-11-24T18:18:29.414Z,73.10
2023-11-24T18:21:02.132Z,73.12
2023-11-24T18:23:35.897Z,72.64
2023-11-24T18:26:08.681Z,72.58
2023-11-24T18:28:40.352Z,72.39
2023-11-24T18:31:13.125Z,72.48
2023-11-24T18:33:45.386Z,72.21
2023-11-24T18:36:17.187Z,72.19
2023-11-24T18:38:48.913Z,72.22
2023-11-24T18:41:20.577Z,72.29
2023-11-24T18:43:52.624Z,72.03
2023-11-24T18:46:24.341Z,72.09
2023-11-24T18:48:56.031Z,72.28
2023-11-24T18:51:29.077Z,71.90
2023-11-24T18:54:00.691Z,72.04
2023-11-24T18:56:32.297Z,72.15
2023-11-24T18:59:03.980Z,72.16
2023-11-24T19:01:35.671Z,72.16
2023-11-24T19:04:08.433Z,72.78
2023-11-24T19:06:40.837Z,72.89
2023-11-24T19:09:16.959Z,73.62
2023-11-24T19:11:49.210Z,73.87
2023-11-24T19:14:21.129Z,74.42
2023-11-24T19:16:53.143Z,74.69
2023-11-24T19:19:24.959Z,74.98
2023-11-24T19:21:56.642Z,75.44
2023-11-24T19:24:29.132Z,75.73
2023-11-24T19:27:01.287Z,76.00
2023-11-24T19:29:32.947Z,76.18
2023-11-24T19:32:05.185Z,76.03
2023-11-24T19:34:36.927Z,76.27
2023-11-24T19:37:09.798Z,76.50
2023-11-24T19:39:43.289Z,76.69
2023-11-24T19:42:15.067Z,76.87
2023-11-24T19:44:47.921Z,77.27
2023-11-24T19:47:19.872Z,77.17
2023-11-24T19:49:52.448Z,76.79
2023-11-24T19:52:26.462Z,76.69
2023-11-24T19:54:58.483Z,76.54
2023-11-24T19:57:32.896Z,76.83
2023-11-24T20:00:09.758Z,76.14
2023-11-24T20:02:41.945Z,75.91
2023-11-24T20:05:14.218Z,76.06
2023-11-24T20:07:46.077Z,75.77
2023-11-24T20:10:19.217Z,76.23
2023-11-24T20:12:52.919Z,76.51
2023-11-24T20:15:26.637Z,76.74
2023-11-24T20:18:01.293Z,76.90
2023-11-24T20:20:34.956Z,77.50
2023-11-24T20:23:07.509Z,77.76
2023-11-24T20:25:39.268Z,77.86
2023-11-24T20:28:11.349Z,78.18
2023-11-24T20:30:44.295Z,78.30
2023-11-24T20:33:18.676Z,78.53
2023-11-24T20:35:51.088Z,78.68
2023-11-24T20:38:23.063Z,78.94
2023-11-24T20:40:56.543Z,79.21
2023-11-24T20:43:30.379Z,79.14
2023-11-24T20:46:04.603Z,79.37
2023-11-24T20:48:39.079Z,79.58
2023-11-24T20:51:12.649Z,79.59
2023-11-24T20:53:44.375Z,79.43
2023-11-24T20:56:16.250Z,79.71
2023-11-24T20:58:48.765Z,79.78
2023-11-24T21:01:22.847Z,79.41
2023-11-24T21:03:54.718Z,79.36
2023-11-24T21:06:26.843Z,79.56
2023-11-24T21:09:04.433Z,79.74
2023-11-24T21:11:37.737Z,79.49
2023-11-24T21:14:09.934Z,79.78
2023-11-24T21:16:43.098Z,79.55
2023-11-24T21:19:15.584Z,79.24
2023-11-24T21:21:47.440Z,78.53
2023-11-24T21:24:19.189Z,77.87
2023-11-24T21:26:51.333Z,77.35
2023-11-24T21:29:23.236Z,77.10
2023-11-24T21:31:56.550Z,76.70
2023-11-24T21:34:28.378Z,75.72
2023-11-24T21:37:00.383Z,75.72
2023-11-24T21:39:32.066Z,75.65
2023-11-24T21:42:03.688Z,75.47
2023-11-24T21:44:35.399Z,75.59
2023-11-24T21:47:07.701Z,75.47
2023-11-24T21:49:40.560Z,75.24
2023-11-24T21:52:12.295Z,75.44
2023-11-24T21:54:48.165Z,75.10
2023-11-24T21:57:21.260Z,75.04
2023-11-24T21:59:52.884Z,75.29
2023-11-24T22:02:28.309Z,75.57
2023-11-24T22:05:02.209Z,75.49
2023-11-24T22:07:34.980Z,75.31
2023-11-24T22:10:08.349Z,75.26
2023-11-24T22:12:40.207Z,75.02
2023-11-24T22:15:13.196Z,74.98
2023-11-24T22:17:45.345Z,74.73
2023-11-24T22:20:20.148Z,74.58
2023-11-24T22:22:52.129Z,74.52
2023-11-24T22:25:23.850Z,74.29
2023-11-24T22:27:55.657Z,74.56
2023-11-24T22:30:27.406Z,74.56
2023-11-24T22:32:59.069Z,74.28
2023-11-24T22:35:30.729Z,74.43
2023-11-24T22:38:02.848Z,74.52
2023-11-24T22:40:34.476Z,74.89
2023-11-24T22:43:06.237Z,74.65
2023-11-24T22:45:38.027Z,74.67
2023-11-24T22:48:10.617Z,74.61
2023-11-24T22:50:42.719Z,74.79
2023-11-24T22:53:14.463Z,74.81
2023-11-24T22:55:46.091Z,74.99
2023-11-24T22:58:19.708Z,74.60
2023-11-24T23:00:54.424Z,74.56
2023-11-24T23:03:27.701Z,74.76
2023-11-24T23:05:59.452Z,74.69
2023-11-24T23:08:32.122Z,74.94
2023-11-24T23:11:05.386Z,74.46
2023-11-24T23:13:37.046Z,74.67
2023-11-24T23:16:11.558Z,74.38
2023-11-24T23:18:45.769Z,74.49
2023-11-24T23:21:21.004Z,74.57
2023-11-24T23:23:56.543Z,74.42
2023-11-24T23:26:28.357Z,74.52
2023-11-24T23:29:01.276Z,74.30
2023-11-24T23:31:33.809Z,74.17
2023-11-24T23:34:06.741Z,74.09
2023-11-24T23:36:38.892Z,73.93
2023-11-24T23:39:11.275Z,73.93
2023-11-24T23:41:42.948Z,73.59
2023-11-24T23:44:15.584Z,73.94
2023-11-24T23:46:47.405Z,73.83
2023-11-24T23:49:19.217Z,74.00
2023-11-24T23:51:50.909Z,73.97
2023-11-24T23:54:24.125Z,73.76
2023-11-24T23:56:55.901Z,73.93
2023-11-24T23:59:27.721Z,73.83
